Portada
METAR-TAF:

METAR-TAF

Aeroports :

Tabas, Iran

latitud: 33-36N, longitud: 056-55E, altitud: 710 m

Observació

L'informe es va fer fa 34 minuts, a les 23:00 UTC
Vent 2 kt del Est/Sud-Est
Temperatura 11°C
Humitat 66%
Pressió 1021 hPa

METAR: OIMT 032300Z AUTO 12002KT //// // ////// 11/05 Q1021

Hora: 03:04 (23:34 UTC)


TAF: manca

Observacions i pronòstics meteorològics de més de 4000 aeroports (METAR i TAF).

Les estacions disponibles són els punts grocs i vermells al mapa.

Posi el ratolí al punt desitjat per veure el nom de l'estació.

Feu clic per veure les observacions i els pronòstics meteorològics.

Per canviar el mapa: feu clic els botons verds amb una creu de color negre per apropar; al botó verd amb un guió per allunyar la imatge; o en les fletxes verdes per a mapes adjacents.


METAR-TAF: